^^
Station Historical Data
Daily Summary for April 1, 2017 Units:  Both    English   Metric
« Previous Day
Next Day »
Daily Weekly Monthly Yearly Custom
  High: Low: Average:
Temperature: 84.9 °F /  29.4 °C 54.1 °F /  12.3 °C 68.5 °F /  20.3 °C
Dew Point: 47.7 °F /  8.7 °C 38.8 °F /  3.8 °C 42.2 °F /  5.7 °C
Humidity: 70% 21% 41%
Wind Speed: 14.1mph /  22.7km/h - 1.5mph /  2.4km/h
Wind Gust: 15.0mph /  24.1km/h - -
Wind- - ESE
Pressure: 30.41 in /  1029.7 hPa 30.29 in /  1025.6 hPa -
Precipitation: 0.00 in /  0 mm    
Historical Graphs
 
 
Tabular Data for April 1, 2017
Time Temperature Dew Point Pressure Wind Wind Speed Wind Gust Humidity Rainfall Rate (Hourly) solar Conditions
00:05 60.6 °F /  15.9 °C 39.7 °F /  4.3 °C 30.39in /  1029hPa Calm   3.0mph /  4.8km/h 46% 0.00in /  0mm 0.0 W/m2
00:11 60.4 °F /  15.8 °C 39.6 °F /  4.2 °C 30.40in /  1029.3hPa SE 2.0mph /  3.2km/h 3.0mph /  4.8km/h 46% 0.00in /  0mm 0.0 W/m2
00:17 60.3 °F /  15.7 °C 39.4 °F /  4.1 °C 30.39in /  1029hPa Calm     46% 0.00in /  0mm 0.0 W/m2
00:23 60.1 °F /  15.6 °C 39.2 °F /  4 °C 30.39in /  1029hPa Calm   1.0mph /  1.6km/h 46% 0.00in /  0mm 0.0 W/m2
00:29 59.9 °F /  15.5 °C 39.0 °F /  3.9 °C 30.40in /  1029.3hPa Calm   1.0mph /  1.6km/h 46% 0.00in /  0mm 0.0 W/m2
00:36 59.7 °F /  15.4 °C 39.4 °F /  4.1 °C 30.39in /  1029hPa Calm   1.0mph /  1.6km/h 47% 0.00in /  0mm 0.0 W/m2
00:42 59.7 °F /  15.4 °C 39.4 °F /  4.1 °C 30.39in /  1029hPa SE 0.9mph /  1.4km/h 1.0mph /  1.6km/h 47% 0.00in /  0mm 0.0 W/m2
00:48 59.5 °F /  15.3 °C 39.4 °F /  4.1 °C 30.39in /  1029hPa Calm   1.0mph /  1.6km/h 47% 0.00in /  0mm 0.0 W/m2
00:56 59.4 °F /  15.2 °C 39.2 °F /  4 °C 30.39in /  1029hPa Calm     47% 0.00in /  0mm 0.0 W/m2
01:02 59.4 °F /  15.2 °C 39.2 °F /  4 °C 30.39in /  1029hPa Calm   1.0mph /  1.6km/h 47% 0.00in /  0mm 0.0 W/m2
01:08 59.4 °F /  15.2 °C 39.2 °F /  4 °C 30.39in /  1029hPa Calm   3.0mph /  4.8km/h 47% 0.00in /  0mm 0.0 W/m2
01:14 59.2 °F /  15.1 °C 39.0 °F /  3.9 °C 30.38in /  1028.7hPa Calm   1.0mph /  1.6km/h 47% 0.00in /  0mm 0.0 W/m2
01:20 59.2 °F /  15.1 °C 39.0 °F /  3.9 °C 30.38in /  1028.7hPa Calm   1.0mph /  1.6km/h 47% 0.00in /  0mm 0.0 W/m2
01:26 59.2 °F /  15.1 °C 39.0 °F /  3.9 °C 30.38in /  1028.7hPa SE 0.9mph /  1.4km/h 3.0mph /  4.8km/h 47% 0.00in /  0mm 0.0 W/m2
01:33 59.0 °F /  15 °C 38.8 °F /  3.8 °C 30.38in /  1028.7hPa East 0.9mph /  1.4km/h 1.0mph /  1.6km/h 47% 0.00in /  0mm 0.0 W/m2
01:39 58.8 °F /  14.9 °C 39.2 °F /  4 °C 30.38in /  1028.7hPa Calm   3.0mph /  4.8km/h 48% 0.00in /  0mm 0.0 W/m2
01:45 58.8 °F /  14.9 °C 39.2 °F /  4 °C 30.38in /  1028.7hPa Calm   2.0mph /  3.2km/h 48% 0.00in /  0mm 0.0 W/m2
01:51 58.6 °F /  14.8 °C 39.6 °F /  4.2 °C 30.38in /  1028.7hPa ENE 0.9mph /  1.4km/h 5.0mph /  8km/h 49% 0.00in /  0mm 0.0 W/m2
01:57 58.6 °F /  14.8 °C 39.6 °F /  4.2 °C 30.38in /  1028.7hPa ESE 0.9mph /  1.4km/h 3.0mph /  4.8km/h 49% 0.00in /  0mm 0.0 W/m2
02:03 58.6 °F /  14.8 °C 39.6 °F /  4.2 °C 30.37in /  1028.3hPa Calm   3.0mph /  4.8km/h 49% 0.00in /  0mm 0.0 W/m2
02:09 58.8 °F /  14.9 °C 39.7 °F /  4.3 °C 30.38in /  1028.7hPa East 2.0mph /  3.2km/h 6.0mph /  9.7km/h 49% 0.00in /  0mm 0.0 W/m2
02:15 58.8 °F /  14.9 °C 39.7 °F /  4.3 °C 30.38in /  1028.7hPa East 0.9mph /  1.4km/h 5.0mph /  8km/h 49% 0.00in /  0mm 0.0 W/m2
02:22 58.6 °F /  14.8 °C 39.6 °F /  4.2 °C 30.38in /  1028.7hPa ENE 2.0mph /  3.2km/h 3.0mph /  4.8km/h 49% 0.00in /  0mm 0.0 W/m2
02:28 58.5 °F /  14.7 °C 39.9 °F /  4.4 °C 30.37in /  1028.3hPa NE 2.9mph /  4.7km/h 3.0mph /  4.8km/h 50% 0.00in /  0mm 0.0 W/m2
02:34 58.5 °F /  14.7 °C 39.9 °F /  4.4 °C 30.37in /  1028.3hPa East 0.9mph /  1.4km/h 3.0mph /  4.8km/h 50% 0.00in /  0mm 0.0 W/m2
02:40 58.3 °F /  14.6 °C 39.7 °F /  4.3 °C 30.37in /  1028.3hPa NE 0.9mph /  1.4km/h 2.0mph /  3.2km/h 50% 0.00in /  0mm 0.0 W/m2
02:46 58.1 °F /  14.5 °C 39.6 °F /  4.2 °C 30.37in /  1028.3hPa Calm   3.0mph /  4.8km/h 50% 0.00in /  0mm 0.0 W/m2
02:52 57.7 °F /  14.3 °C 39.2 °F /  4 °C 30.37in /  1028.3hPa Calm   3.0mph /  4.8km/h 50% 0.00in /  0mm 0.0 W/m2
02:58 57.6 °F /  14.2 °C 39.6 °F /  4.2 °C 30.37in /  1028.3hPa Calm   4.0mph /  6.4km/h 51% 0.00in /  0mm 0.0 W/m2
03:04 57.6 °F /  14.2 °C 39.6 °F /  4.2 °C 30.37in /  1028.3hPa East 2.9mph /  4.7km/h 3.0mph /  4.8km/h 51% 0.00in /  0mm 0.0 W/m2
03:10 57.4 °F /  14.1 °C 39.9 °F /  4.4 °C 30.37in /  1028.3hPa Calm   3.0mph /  4.8km/h 52% 0.00in /  0mm 0.0 W/m2
03:16 57.0 °F /  13.9 °C 39.6 °F /  4.2 °C 30.37in /  1028.3hPa East 0.9mph /  1.4km/h 2.0mph /  3.2km/h 52% 0.00in /  0mm 0.0 W/m2
03:22 56.8 °F /  13.8 °C 39.4 °F /  4.1 °C 30.37in /  1028.3hPa East 2.0mph /  3.2km/h 4.0mph /  6.4km/h 52% 0.00in /  0mm 0.0 W/m2
03:29 56.8 °F /  13.8 °C 39.4 °F /  4.1 °C 30.37in /  1028.3hPa Calm   4.0mph /  6.4km/h 52% 0.00in /  0mm 0.0 W/m2
03:35 56.8 °F /  13.8 °C 39.4 °F /  4.1 °C 30.37in /  1028.3hPa ESE 0.9mph /  1.4km/h 3.0mph /  4.8km/h 52% 0.00in /  0mm 0.0 W/m2
03:41 56.8 °F /  13.8 °C 39.4 °F /  4.1 °C 30.37in /  1028.3hPa ENE 0.9mph /  1.4km/h 4.0mph /  6.4km/h 52% 0.00in /  0mm 0.0 W/m2
03:47 56.7 °F /  13.7 °C 39.2 °F /  4 °C 30.38in /  1028.7hPa ENE 2.0mph /  3.2km/h 5.0mph /  8km/h 52% 0.00in /  0mm 0.0 W/m2
03:53 56.7 °F /  13.7 °C 39.7 °F /  4.3 °C 30.37in /  1028.3hPa Calm   1.0mph /  1.6km/h 53% 0.00in /  0mm 0.0 W/m2
03:59 56.7 °F /  13.7 °C 39.7 °F /  4.3 °C 30.37in /  1028.3hPa ESE 0.9mph /  1.4km/h 1.0mph /  1.6km/h 53% 0.00in /  0mm 0.0 W/m2
04:05 56.7 °F /  13.7 °C 39.7 °F /  4.3 °C 30.37in /  1028.3hPa ENE 0.9mph /  1.4km/h 5.0mph /  8km/h 53% 0.00in /  0mm 0.0 W/m2
04:11 56.5 °F /  13.6 °C 39.6 °F /  4.2 °C 30.38in /  1028.7hPa Calm   4.0mph /  6.4km/h 53% 0.00in /  0mm 0.0 W/m2
04:17 56.5 °F /  13.6 °C 40.1 °F /  4.5 °C 30.37in /  1028.3hPa East 0.9mph /  1.4km/h 2.0mph /  3.2km/h 54% 0.00in /  0mm 0.0 W/m2
04:23 56.5 °F /  13.6 °C 40.1 °F /  4.5 °C 30.37in /  1028.3hPa Calm   5.0mph /  8km/h 54% 0.00in /  0mm 0.0 W/m2
04:29 56.1 °F /  13.4 °C 39.7 °F /  4.3 °C 30.37in /  1028.3hPa Calm   1.0mph /  1.6km/h 54% 0.00in /  0mm 0.0 W/m2
04:35 56.1 °F /  13.4 °C 40.1 °F /  4.5 °C 30.37in /  1028.3hPa NE 0.9mph /  1.4km/h 3.0mph /  4.8km/h 55% 0.00in /  0mm 0.0 W/m2
04:41 55.9 °F /  13.3 °C 39.9 °F /  4.4 °C 30.37in /  1028.3hPa Calm   3.0mph /  4.8km/h 55% 0.00in /  0mm 0.0 W/m2
04:47 55.9 °F /  13.3 °C 40.5 °F /  4.7 °C 30.38in /  1028.7hPa Calm   3.0mph /  4.8km/h 56% 0.00in /  0mm 0.0 W/m2
04:53 55.8 °F /  13.2 °C 40.3 °F /  4.6 °C 30.37in /  1028.3hPa Calm   1.0mph /  1.6km/h 56% 0.00in /  0mm 0.0 W/m2
04:59 55.8 °F /  13.2 °C 40.8 °F /  4.9 °C 30.37in /  1028.3hPa East 0.9mph /  1.4km/h 2.0mph /  3.2km/h 57% 0.00in /  0mm 0.0 W/m2
05:05 55.6 °F /  13.1 °C 40.6 °F /  4.8 °C 30.37in /  1028.3hPa Calm   4.0mph /  6.4km/h 57% 0.00in /  0mm 0.0 W/m2
05:11 55.6 °F /  13.1 °C 40.6 °F /  4.8 °C 30.37in /  1028.3hPa ENE 2.0mph /  3.2km/h 4.0mph /  6.4km/h 57% 0.00in /  0mm 0.0 W/m2
05:17 55.6 °F /  13.1 °C 41.0 °F /  5 °C 30.37in /  1028.3hPa Calm   3.0mph /  4.8km/h 58% 0.00in /  0mm 0.0 W/m2
05:23 55.2 °F /  12.9 °C 40.6 °F /  4.8 °C 30.37in /  1028.3hPa Calm   2.0mph /  3.2km/h 58% 0.00in /  0mm 0.0 W/m2
05:29 55.2 °F /  12.9 °C 41.2 °F /  5.1 °C 30.37in /  1028.3hPa Calm   1.0mph /  1.6km/h 59% 0.00in /  0mm 0.0 W/m2
05:35 55.0 °F /  12.8 °C 41.0 °F /  5 °C 30.37in /  1028.3hPa ENE 0.9mph /  1.4km/h 3.0mph /  4.8km/h 59% 0.00in /  0mm 0.0 W/m2
05:41 55.0 °F /  12.8 °C 41.0 °F /  5 °C 30.38in /  1028.7hPa Calm   5.0mph /  8km/h 59% 0.00in /  0mm 0.0 W/m2
05:47 54.9 °F /  12.7 °C 41.2 °F /  5.1 °C 30.38in /  1028.7hPa Calm   2.0mph /  3.2km/h 60% 0.00in /  0mm 0.0 W/m2
05:54 54.9 °F /  12.7 °C 41.2 °F /  5.1 °C 30.38in /  1028.7hPa ESE 0.9mph /  1.4km/h 4.0mph /  6.4km/h 60% 0.00in /  0mm 0.0 W/m2
06:00 54.9 °F /  12.7 °C 41.7 °F /  5.4 °C 30.38in /  1028.7hPa ENE 2.0mph /  3.2km/h 4.0mph /  6.4km/h 61% 0.00in /  0mm 0.0 W/m2
06:06 54.9 °F /  12.7 °C 41.7 °F /  5.4 °C 30.38in /  1028.7hPa Calm   2.0mph /  3.2km/h 61% 0.00in /  0mm 0.0 W/m2
06:12 54.9 °F /  12.7 °C 41.7 °F /  5.4 °C 30.39in /  1029hPa Calm   1.0mph /  1.6km/h 61% 0.00in /  0mm 0.0 W/m2
06:18 54.9 °F /  12.7 °C 42.1 °F /  5.6 °C 30.39in /  1029hPa Calm   2.0mph /  3.2km/h 62% 0.00in /  0mm 0.0 W/m2
06:24 54.9 °F /  12.7 °C 42.4 °F /  5.8 °C 30.39in /  1029hPa Calm   1.0mph /  1.6km/h 63% 0.00in /  0mm 0.0 W/m2
06:30 54.7 °F /  12.6 °C 42.3 °F /  5.7 °C 30.39in /  1029hPa Calm   2.0mph /  3.2km/h 63% 0.00in /  0mm 0.0 W/m2
06:37 54.7 °F /  12.6 °C 42.8 °F /  6 °C 30.39in /  1029hPa Calm   2.0mph /  3.2km/h 64% 0.00in /  0mm 0.0 W/m2
06:43 54.7 °F /  12.6 °C 42.8 °F /  6 °C 30.39in /  1029hPa Calm   4.0mph /  6.4km/h 64% 0.00in /  0mm 0.0 W/m2
06:49 54.7 °F /  12.6 °C 43.2 °F /  6.2 °C 30.40in /  1029.3hPa Calm   3.0mph /  4.8km/h 65% 0.00in /  0mm 0.0 W/m2
06:55 54.7 °F /  12.6 °C 43.5 °F /  6.4 °C 30.40in /  1029.3hPa ENE 2.0mph /  3.2km/h 2.0mph /  3.2km/h 66% 0.00in /  0mm 0.0 W/m2
07:01 54.5 °F /  12.5 °C 43.3 °F /  6.3 °C 30.40in /  1029.3hPa Calm   1.0mph /  1.6km/h 66% 0.00in /  0mm 0.0 W/m2
07:07 54.3 °F /  12.4 °C 43.2 °F /  6.2 °C 30.40in /  1029.3hPa Calm   1.0mph /  1.6km/h 66% 0.00in /  0mm 7.0 W/m2
07:13 54.3 °F /  12.4 °C 43.2 °F /  6.2 °C 30.40in /  1029.3hPa Calm   3.0mph /  4.8km/h 66% 0.00in /  0mm 11.0 W/m2
07:19 54.3 °F /  12.4 °C 43.5 °F /  6.4 °C 30.40in /  1029.3hPa Calm   2.0mph /  3.2km/h 67% 0.00in /  0mm 12.0 W/m2
07:25 54.3 °F /  12.4 °C 43.5 °F /  6.4 °C 30.41in /  1029.7hPa Calm   1.0mph /  1.6km/h 67% 0.00in /  0mm 14.0 W/m2
07:31 54.1 °F /  12.3 °C 43.9 °F /  6.6 °C 30.41in /  1029.7hPa Calm     68% 0.00in /  0mm 18.0 W/m2
07:37 54.3 °F /  12.4 °C 44.4 °F /  6.9 °C 30.41in /  1029.7hPa Calm   1.0mph /  1.6km/h 69% 0.00in /  0mm 19.0 W/m2
07:44 54.3 °F /  12.4 °C 44.4 °F /  6.9 °C 30.41in /  1029.7hPa Calm     69% 0.00in /  0mm 21.0 W/m2
07:50 54.7 °F /  12.6 °C 44.8 °F /  7.1 °C 30.41in /  1029.7hPa Calm   1.0mph /  1.6km/h 69% 0.00in /  0mm 23.0 W/m2
07:56 54.9 °F /  12.7 °C 45.0 °F /  7.2 °C 30.41in /  1029.7hPa Calm     69% 0.00in /  0mm 25.0 W/m2
08:02 55.4 °F /  13 °C 45.9 °F /  7.7 °C 30.41in /  1029.7hPa Calm   2.0mph /  3.2km/h 70% 0.00in /  0mm 26.0 W/m2
08:08 55.9 °F /  13.3 °C 45.9 °F /  7.7 °C 30.41in /  1029.7hPa Calm     69% 0.00in /  0mm 26.0 W/m2
08:14 56.7 °F /  13.7 °C 46.2 °F /  7.9 °C 30.41in /  1029.7hPa Calm   1.0mph /  1.6km/h 68% 0.00in /  0mm 28.0 W/m2
08:20 57.6 °F /  14.2 °C 46.8 °F /  8.2 °C 30.41in /  1029.7hPa ESE 2.0mph /  3.2km/h 3.0mph /  4.8km/h 67% 0.00in /  0mm 30.0 W/m2
08:27 58.5 °F /  14.7 °C 46.8 °F /  8.2 °C 30.41in /  1029.7hPa Calm   4.0mph /  6.4km/h 65% 0.00in /  0mm 32.0 W/m2
08:33 59.5 °F /  15.3 °C 46.9 °F /  8.3 °C 30.41in /  1029.7hPa Calm   5.0mph /  8km/h 63% 0.00in /  0mm 32.0 W/m2
08:39 61.2 °F /  16.2 °C 47.1 °F /  8.4 °C 30.41in /  1029.7hPa Calm   3.0mph /  4.8km/h 60% 0.00in /  0mm 33.0 W/m2
08:45 62.4 °F /  16.9 °C 46.9 °F /  8.3 °C 30.41in /  1029.7hPa Calm     57% 0.00in /  0mm 46.0 W/m2
08:51 63.7 °F /  17.6 °C 47.3 °F /  8.5 °C 30.41in /  1029.7hPa East 0.9mph /  1.4km/h 6.0mph /  9.7km/h 55% 0.00in /  0mm 35.0 W/m2
08:57 64.8 °F /  18.2 °C 47.7 °F /  8.7 °C 30.41in /  1029.7hPa Calm   3.0mph /  4.8km/h 54% 0.00in /  0mm 37.0 W/m2
09:03 65.5 °F /  18.6 °C 47.5 °F /  8.6 °C 30.41in /  1029.7hPa Calm   1.0mph /  1.6km/h 52% 0.00in /  0mm 39.0 W/m2
09:10 66.0 °F /  18.9 °C 46.8 °F /  8.2 °C 30.41in /  1029.7hPa ENE 0.9mph /  1.4km/h 5.0mph /  8km/h 50% 0.00in /  0mm 39.0 W/m2
09:16 66.7 °F /  19.3 °C 46.9 °F /  8.3 °C 30.41in /  1029.7hPa ENE 2.0mph /  3.2km/h 4.0mph /  6.4km/h 49% 0.00in /  0mm 40.0 W/m2
09:22 67.5 °F /  19.7 °C 47.1 °F /  8.4 °C 30.41in /  1029.7hPa Calm   6.0mph /  9.7km/h 48% 0.00in /  0mm 42.0 W/m2
09:28 68.2 °F /  20.1 °C 47.7 °F /  8.7 °C 30.41in /  1029.7hPa NNE 2.0mph /  3.2km/h 3.0mph /  4.8km/h 48% 0.00in /  0mm 44.0 W/m2
09:34 68.7 °F /  20.4 °C 47.1 °F /  8.4 °C 30.41in /  1029.7hPa SE 4.0mph /  6.4km/h 10.0mph /  16.1km/h 46% 0.00in /  0mm 44.0 W/m2
09:40 69.4 °F /  20.8 °C 47.1 °F /  8.4 °C 30.41in /  1029.7hPa ENE 2.9mph /  4.7km/h 6.0mph /  9.7km/h 45% 0.00in /  0mm 53.0 W/m2
09:47 70.2 °F /  21.2 °C 46.6 °F /  8.1 °C 30.41in /  1029.7hPa East 4.0mph /  6.4km/h 8.0mph /  12.9km/h 43% 0.00in /  0mm 601.0 W/m2
09:53 71.1 °F /  21.7 °C 46.8 °F /  8.2 °C 30.41in /  1029.7hPa NE 4.9mph /  7.9km/h 8.0mph /  12.9km/h 42% 0.00in /  0mm 621.0 W/m2
09:59 72.1 °F /  22.3 °C 46.4 °F /  8 °C 30.41in /  1029.7hPa ENE 2.9mph /  4.7km/h 6.0mph /  9.7km/h 40% 0.00in /  0mm 638.0 W/m2
10:05 73.0 °F /  22.8 °C 45.9 °F /  7.7 °C 30.41in /  1029.7hPa NNE 6.9mph /  11.1km/h 10.0mph /  16.1km/h 38% 0.00in /  0mm 659.0 W/m2
10:11 73.6 °F /  23.1 °C 46.4 °F /  8 °C 30.41in /  1029.7hPa Calm   7.0mph /  11.3km/h 38% 0.00in /  0mm 677.0 W/m2
10:17 74.3 °F /  23.5 °C 46.4 °F /  8 °C 30.41in /  1029.7hPa NE 4.0mph /  6.4km/h 9.0mph /  14.5km/h 37% 0.00in /  0mm 694.0 W/m2
10:23 74.7 °F /  23.7 °C 45.9 °F /  7.7 °C 30.41in /  1029.7hPa ENE 2.9mph /  4.7km/h 8.0mph /  12.9km/h 36% 0.00in /  0mm 712.0 W/m2
10:29 74.8 °F /  23.8 °C 45.3 °F /  7.4 °C 30.40in /  1029.3hPa NNE 6.0mph /  9.7km/h 10.0mph /  16.1km/h 35% 0.00in /  0mm 731.0 W/m2
10:36 75.4 °F /  24.1 °C 46.6 °F /  8.1 °C 30.40in /  1029.3hPa ESE 4.0mph /  6.4km/h 8.0mph /  12.9km/h 36% 0.00in /  0mm 742.0 W/m2
10:42 75.9 °F /  24.4 °C 45.5 °F /  7.5 °C 30.40in /  1029.3hPa NNE 2.0mph /  3.2km/h 7.0mph /  11.3km/h 34% 0.00in /  0mm 759.0 W/m2
10:48 75.9 °F /  24.4 °C 44.8 °F /  7.1 °C 30.40in /  1029.3hPa ENE 2.9mph /  4.7km/h 7.0mph /  11.3km/h 33% 0.00in /  0mm 777.0 W/m2
10:54 76.3 °F /  24.6 °C 45.1 °F /  7.3 °C 30.40in /  1029.3hPa North 2.9mph /  4.7km/h 7.0mph /  11.3km/h 33% 0.00in /  0mm 791.0 W/m2
11:00 76.8 °F /  24.9 °C 45.5 °F /  7.5 °C 30.40in /  1029.3hPa ENE 6.0mph /  9.7km/h 8.0mph /  12.9km/h 33% 0.00in /  0mm 803.0 W/m2
11:06 77.0 °F /  25 °C 45.0 °F /  7.2 °C 30.40in /  1029.3hPa NNE 2.9mph /  4.7km/h 7.0mph /  11.3km/h 32% 0.00in /  0mm 812.0 W/m2
11:12 77.2 °F /  25.1 °C 46.6 °F /  8.1 °C 30.39in /  1029hPa ESE 2.0mph /  3.2km/h 7.0mph /  11.3km/h 34% 0.00in /  0mm 823.0 W/m2
11:18 77.5 °F /  25.3 °C 45.3 °F /  7.4 °C 30.39in /  1029hPa ESE 4.9mph /  7.9km/h 11.0mph /  17.7km/h 32% 0.00in /  0mm 837.0 W/m2
11:25 78.1 °F /  25.6 °C 45.0 °F /  7.2 °C 30.39in /  1029hPa East 2.9mph /  4.7km/h 10.0mph /  16.1km/h 31% 0.00in /  0mm 853.0 W/m2
11:31 78.4 °F /  25.8 °C 44.4 °F /  6.9 °C 30.38in /  1028.7hPa ESE 6.9mph /  11.1km/h 8.0mph /  12.9km/h 30% 0.00in /  0mm 860.0 W/m2
11:37 78.4 °F /  25.8 °C 45.3 °F /  7.4 °C 30.38in /  1028.7hPa SE 10.1mph /  16.3km/h 12.0mph /  19.3km/h 31% 0.00in /  0mm 868.0 W/m2
11:43 78.3 °F /  25.7 °C 44.2 °F /  6.8 °C 30.38in /  1028.7hPa SE 4.0mph /  6.4km/h 13.0mph /  20.9km/h 30% 0.00in /  0mm 877.0 W/m2
11:49 78.4 °F /  25.8 °C 44.4 °F /  6.9 °C 30.38in /  1028.7hPa ENE 6.0mph /  9.7km/h 10.0mph /  16.1km/h 30% 0.00in /  0mm 884.0 W/m2
11:55 79.0 °F /  26.1 °C 45.0 °F /  7.2 °C 30.38in /  1028.7hPa ESE 4.9mph /  7.9km/h 7.0mph /  11.3km/h 30% 0.00in /  0mm 891.0 W/m2
12:01 79.3 °F /  26.3 °C 43.3 °F /  6.3 °C 30.37in /  1028.3hPa ESE 2.9mph /  4.7km/h 12.0mph /  19.3km/h 28% 0.00in /  0mm 898.0 W/m2
12:07 79.5 °F /  26.4 °C 43.5 °F /  6.4 °C 30.37in /  1028.3hPa ESE 6.0mph /  9.7km/h 9.0mph /  14.5km/h 28% 0.00in /  0mm 904.0 W/m2
12:13 79.5 °F /  26.4 °C 42.6 °F /  5.9 °C 30.37in /  1028.3hPa SE 11.0mph /  17.7km/h 11.0mph /  17.7km/h 27% 0.00in /  0mm 905.0 W/m2
12:19 79.7 °F /  26.5 °C 44.6 °F /  7 °C 30.37in /  1028.3hPa SW 2.0mph /  3.2km/h 13.0mph /  20.9km/h 29% 0.00in /  0mm 911.0 W/m2
12:25 80.1 °F /  26.7 °C 45.0 °F /  7.2 °C 30.36in /  1028hPa East 11.0mph /  17.7km/h 11.0mph /  17.7km/h 29% 0.00in /  0mm 916.0 W/m2
12:31 80.4 °F /  26.9 °C 44.2 °F /  6.8 °C 30.36in /  1028hPa SE 0.9mph /  1.4km/h 9.0mph /  14.5km/h 28% 0.00in /  0mm 916.0 W/m2
12:37 81.1 °F /  27.3 °C 44.1 °F /  6.7 °C 30.36in /  1028hPa East 2.9mph /  4.7km/h 8.0mph /  12.9km/h 27% 0.00in /  0mm 916.0 W/m2
12:44 81.3 °F /  27.4 °C 44.1 °F /  6.7 °C 30.35in /  1027.7hPa ENE 4.0mph /  6.4km/h 10.0mph /  16.1km/h 27% 0.00in /  0mm 921.0 W/m2
12:50 81.5 °F /  27.5 °C 44.2 °F /  6.8 °C 30.35in /  1027.7hPa NE 11.0mph /  17.7km/h 12.0mph /  19.3km/h 27% 0.00in /  0mm 923.0 W/m2
12:56 81.3 °F /  27.4 °C 43.2 °F /  6.2 °C 30.35in /  1027.7hPa North 2.9mph /  4.7km/h 15.0mph /  24.1km/h 26% 0.00in /  0mm 921.0 W/m2
13:02 81.3 °F /  27.4 °C 43.2 °F /  6.2 °C 30.35in /  1027.7hPa ESE 4.0mph /  6.4km/h 9.0mph /  14.5km/h 26% 0.00in /  0mm 919.0 W/m2
13:08 81.3 °F /  27.4 °C 43.2 °F /  6.2 °C 30.35in /  1027.7hPa Calm   3.0mph /  4.8km/h 26% 0.00in /  0mm 916.0 W/m2
13:14 81.3 °F /  27.4 °C 43.2 °F /  6.2 °C 30.35in /  1027.7hPa SSE 2.0mph /  3.2km/h 7.0mph /  11.3km/h 26% 0.00in /  0mm 916.0 W/m2
13:20 81.9 °F /  27.7 °C 43.7 °F /  6.5 °C 30.34in /  1027.3hPa NE 4.0mph /  6.4km/h 8.0mph /  12.9km/h 26% 0.00in /  0mm 911.0 W/m2
13:26 82.0 °F /  27.8 °C 43.7 °F /  6.5 °C 30.34in /  1027.3hPa NNE 6.0mph /  9.7km/h 10.0mph /  16.1km/h 26% 0.00in /  0mm 902.0 W/m2
13:32 81.9 °F /  27.7 °C 43.7 °F /  6.5 °C 30.34in /  1027.3hPa ESE 6.0mph /  9.7km/h 9.0mph /  14.5km/h 26% 0.00in /  0mm 902.0 W/m2
13:39 81.9 °F /  27.7 °C 42.6 °F /  5.9 °C 30.33in /  1027hPa North 2.9mph /  4.7km/h 5.0mph /  8km/h 25% 0.00in /  0mm 900.0 W/m2
13:45 82.0 °F /  27.8 °C 41.7 °F /  5.4 °C 30.33in /  1027hPa ENE 6.0mph /  9.7km/h 7.0mph /  11.3km/h 24% 0.00in /  0mm 900.0 W/m2
13:51 82.6 °F /  28.1 °C 43.2 °F /  6.2 °C 30.33in /  1027hPa ESE 2.9mph /  4.7km/h 10.0mph /  16.1km/h 25% 0.00in /  0mm 886.0 W/m2
13:57 82.8 °F /  28.2 °C 43.3 °F /  6.3 °C 30.33in /  1027hPa ESE 14.1mph /  22.7km/h 14.1mph /  22.7km/h 25% 0.00in /  0mm 881.0 W/m2
14:03 82.2 °F /  27.9 °C 43.0 °F /  6.1 °C 30.33in /  1027hPa SSE 4.9mph /  7.9km/h 11.0mph /  17.7km/h 25% 0.00in /  0mm 861.0 W/m2
14:09 82.0 °F /  27.8 °C 43.7 °F /  6.5 °C 30.32in /  1026.6hPa SE 4.0mph /  6.4km/h 7.0mph /  11.3km/h 26% 0.00in /  0mm 844.0 W/m2
14:15 82.2 °F /  27.9 °C 43.9 °F /  6.6 °C 30.32in /  1026.6hPa NE 2.9mph /  4.7km/h 10.0mph /  16.1km/h 26% 0.00in /  0mm 842.0 W/m2
14:21 82.8 °F /  28.2 °C 42.3 °F /  5.7 °C 30.32in /  1026.6hPa ESE 6.0mph /  9.7km/h 14.0mph /  22.5km/h 24% 0.00in /  0mm 840.0 W/m2
14:28 83.1 °F /  28.4 °C 42.6 °F /  5.9 °C 30.32in /  1026.6hPa ENE 2.9mph /  4.7km/h 8.0mph /  12.9km/h 24% 0.00in /  0mm 826.0 W/m2
14:34 83.5 °F /  28.6 °C 43.0 °F /  6.1 °C 30.32in /  1026.6hPa SSW 0.9mph /  1.4km/h 5.0mph /  8km/h 24% 0.00in /  0mm 814.0 W/m2
14:41 83.7 °F /  28.7 °C 41.9 °F /  5.5 °C 30.31in /  1026.3hPa ESE 6.0mph /  9.7km/h 9.0mph /  14.5km/h 23% 0.00in /  0mm 798.0 W/m2
14:46 83.5 °F /  28.6 °C 40.6 °F /  4.8 °C 30.31in /  1026.3hPa ESE 2.0mph /  3.2km/h 9.0mph /  14.5km/h 22% 0.00in /  0mm 795.0 W/m2
14:52 83.5 °F /  28.6 °C 41.7 °F /  5.4 °C 30.31in /  1026.3hPa North 4.0mph /  6.4km/h 8.0mph /  12.9km/h 23% 0.00in /  0mm 779.0 W/m2
14:58 83.5 °F /  28.6 °C 41.7 °F /  5.4 °C 30.31in /  1026.3hPa North 6.9mph /  11.1km/h 9.0mph /  14.5km/h 23% 0.00in /  0mm 759.0 W/m2
15:04 83.7 °F /  28.7 °C 41.9 °F /  5.5 °C 30.31in /  1026.3hPa West 0.9mph /  1.4km/h 5.0mph /  8km/h 23% 0.00in /  0mm 742.0 W/m2
15:11 83.5 °F /  28.6 °C 43.9 °F /  6.6 °C 30.31in /  1026.3hPa SSE 0.9mph /  1.4km/h 5.0mph /  8km/h 25% 0.00in /  0mm 726.0 W/m2
15:19 83.8 °F /  28.8 °C 43.2 °F /  6.2 °C 30.31in /  1026.3hPa ESE 6.9mph /  11.1km/h 12.0mph /  19.3km/h 24% 0.00in /  0mm 705.0 W/m2
15:25 83.8 °F /  28.8 °C 41.0 °F /  5 °C 30.31in /  1026.3hPa NNW 0.9mph /  1.4km/h 7.0mph /  11.3km/h 22% 0.00in /  0mm 689.0 W/m2
15:31 83.8 °F /  28.8 °C 42.1 °F /  5.6 °C 30.31in /  1026.3hPa NNW 2.0mph /  3.2km/h 8.0mph /  12.9km/h 23% 0.00in /  0mm 675.0 W/m2
15:37 83.8 °F /  28.8 °C 42.1 °F /  5.6 °C 30.31in /  1026.3hPa ESE 4.9mph /  7.9km/h 9.0mph /  14.5km/h 23% 0.00in /  0mm 656.0 W/m2
15:43 83.8 °F /  28.8 °C 42.1 °F /  5.6 °C 30.30in /  1026hPa SSE 4.9mph /  7.9km/h 8.0mph /  12.9km/h 23% 0.00in /  0mm 636.0 W/m2
15:49 83.7 °F /  28.7 °C 41.9 °F /  5.5 °C 30.30in /  1026hPa Calm   5.0mph /  8km/h 23% 0.00in /  0mm 619.0 W/m2
15:56 83.7 °F /  28.7 °C 43.0 °F /  6.1 °C 30.30in /  1026hPa SE 2.0mph /  3.2km/h 2.0mph /  3.2km/h 24% 0.00in /  0mm 599.0 W/m2
16:02 84.0 °F /  28.9 °C 43.3 °F /  6.3 °C 30.30in /  1026hPa NE 2.0mph /  3.2km/h 4.0mph /  6.4km/h 24% 0.00in /  0mm 577.0 W/m2
16:11 84.6 °F /  29.2 °C 43.9 °F /  6.6 °C 30.30in /  1026hPa East 4.0mph /  6.4km/h 8.0mph /  12.9km/h 24% 0.00in /  0mm 547.0 W/m2
16:18 84.7 °F /  29.3 °C 42.8 °F /  6 °C 30.30in /  1026hPa Calm   5.0mph /  8km/h 23% 0.00in /  0mm 524.0 W/m2
16:24 84.7 °F /  29.3 °C 42.8 °F /  6 °C 30.30in /  1026hPa NNE 2.9mph /  4.7km/h 3.0mph /  4.8km/h 23% 0.00in /  0mm 503.0 W/m2
16:36 84.9 °F /  29.4 °C 43.0 °F /  6.1 °C 30.29in /  1025.6hPa Calm   2.0mph /  3.2km/h 23% 0.00in /  0mm 462.0 W/m2
16:47 84.7 °F /  29.3 °C 41.7 °F /  5.4 °C 30.30in /  1026hPa ESE 0.9mph /  1.4km/h 7.0mph /  11.3km/h 22% 0.00in /  0mm 418.0 W/m2
16:56 84.7 °F /  29.3 °C 40.5 °F /  4.7 °C 30.30in /  1026hPa ESE 2.9mph /  4.7km/h 5.0mph /  8km/h 21% 0.00in /  0mm 388.0 W/m2
17:03 84.7 °F /  29.3 °C 40.5 °F /  4.7 °C 30.30in /  1026hPa East 2.0mph /  3.2km/h 4.0mph /  6.4km/h 21% 0.00in /  0mm 357.0 W/m2
17:09 84.6 °F /  29.2 °C 40.3 °F /  4.6 °C 30.30in /  1026hPa NE 4.0mph /  6.4km/h 6.0mph /  9.7km/h 21% 0.00in /  0mm 332.0 W/m2
17:15 84.2 °F /  29 °C 40.1 °F /  4.5 °C 30.30in /  1026hPa Calm   3.0mph /  4.8km/h 21% 0.00in /  0mm 309.0 W/m2
17:21 84.0 °F /  28.9 °C 41.0 °F /  5 °C 30.30in /  1026hPa Calm   1.0mph /  1.6km/h 22% 0.00in /  0mm 287.0 W/m2
17:27 84.4 °F /  29.1 °C 41.4 °F /  5.2 °C 30.30in /  1026hPa SE 4.0mph /  6.4km/h 4.0mph /  6.4km/h 22% 0.00in /  0mm 260.0 W/m2
17:34 84.4 °F /  29.1 °C 40.1 °F /  4.5 °C 30.30in /  1026hPa NNE 0.9mph /  1.4km/h 4.0mph /  6.4km/h 21% 0.00in /  0mm 237.0 W/m2
17:40 83.8 °F /  28.8 °C 41.0 °F /  5 °C 30.30in /  1026hPa Calm   3.0mph /  4.8km/h 22% 0.00in /  0mm 214.0 W/m2
17:46 83.5 °F /  28.6 °C 40.6 °F /  4.8 °C 30.30in /  1026hPa SSE 2.0mph /  3.2km/h 7.0mph /  11.3km/h 22% 0.00in /  0mm 192.0 W/m2
17:52 83.5 °F /  28.6 °C 40.6 °F /  4.8 °C 30.30in /  1026hPa SSE 0.9mph /  1.4km/h 3.0mph /  4.8km/h 22% 0.00in /  0mm 167.0 W/m2
17:58 83.5 °F /  28.6 °C 40.6 °F /  4.8 °C 30.30in /  1026hPa Calm   2.0mph /  3.2km/h 22% 0.00in /  0mm 139.0 W/m2
18:04 83.1 °F /  28.4 °C 40.3 °F /  4.6 °C 30.30in /  1026hPa NE 0.9mph /  1.4km/h 4.0mph /  6.4km/h 22% 0.00in /  0mm 105.0 W/m2
18:10 82.2 °F /  27.9 °C 40.8 °F /  4.9 °C 30.30in /  1026hPa ESE 0.9mph /  1.4km/h 6.0mph /  9.7km/h 23% 0.00in /  0mm 44.0 W/m2
18:17 81.7 °F /  27.6 °C 40.3 °F /  4.6 °C 30.31in /  1026.3hPa NE 0.9mph /  1.4km/h 3.0mph /  4.8km/h 23% 0.00in /  0mm 28.0 W/m2
18:23 80.8 °F /  27.1 °C 40.6 °F /  4.8 °C 30.31in /  1026.3hPa Calm   4.0mph /  6.4km/h 24% 0.00in /  0mm 23.0 W/m2
18:29 80.2 °F /  26.8 °C 40.1 °F /  4.5 °C 30.31in /  1026.3hPa Calm   2.0mph /  3.2km/h 24% 0.00in /  0mm 18.0 W/m2
18:35 79.9 °F /  26.6 °C 41.0 °F /  5 °C 30.31in /  1026.3hPa Calm     25% 0.00in /  0mm 12.0 W/m2
18:41 79.3 °F /  26.3 °C 40.5 °F /  4.7 °C 30.31in /  1026.3hPa East 0.9mph /  1.4km/h 1.0mph /  1.6km/h 25% 0.00in /  0mm 9.0 W/m2
18:47 78.8 °F /  26 °C 41.0 °F /  5 °C 30.31in /  1026.3hPa Calm   1.0mph /  1.6km/h 26% 0.00in /  0mm 5.0 W/m2
18:53 78.1 °F /  25.6 °C 41.4 °F /  5.2 °C 30.31in /  1026.3hPa Calm     27% 0.00in /  0mm 0.0 W/m2
19:00 77.4 °F /  25.2 °C 39.7 °F /  4.3 °C 30.31in /  1026.3hPa Calm   1.0mph /  1.6km/h 26% 0.00in /  0mm 0.0 W/m2
19:06 76.6 °F /  24.8 °C 40.1 °F /  4.5 °C 30.31in /  1026.3hPa Calm     27% 0.00in /  0mm 0.0 W/m2
19:12 75.9 °F /  24.4 °C 40.5 °F /  4.7 °C 30.32in /  1026.6hPa Calm     28% 0.00in /  0mm 0.0 W/m2
19:18 75.2 °F /  24 °C 40.8 °F /  4.9 °C 30.32in /  1026.6hPa Calm   1.0mph /  1.6km/h 29% 0.00in /  0mm 0.0 W/m2
19:24 74.5 °F /  23.6 °C 40.1 °F /  4.5 °C 30.32in /  1026.6hPa Calm     29% 0.00in /  0mm 0.0 W/m2
19:30 73.6 °F /  23.1 °C 40.3 °F /  4.6 °C 30.32in /  1026.6hPa Calm   1.0mph /  1.6km/h 30% 0.00in /  0mm 0.0 W/m2
19:36 72.9 °F /  22.7 °C 40.5 °F /  4.7 °C 30.32in /  1026.6hPa Calm     31% 0.00in /  0mm 0.0 W/m2
19:42 72.3 °F /  22.4 °C 39.9 °F /  4.4 °C 30.32in /  1026.6hPa Calm     31% 0.00in /  0mm 0.0 W/m2
19:48 71.8 °F /  22.1 °C 40.3 °F /  4.6 °C 30.32in /  1026.6hPa Calm   1.0mph /  1.6km/h 32% 0.00in /  0mm 0.0 W/m2
19:55 71.1 °F /  21.7 °C 39.7 °F /  4.3 °C 30.32in /  1026.6hPa Calm   1.0mph /  1.6km/h 32% 0.00in /  0mm 0.0 W/m2
20:01 70.7 °F /  21.5 °C 40.1 °F /  4.5 °C 30.33in /  1027hPa East 0.9mph /  1.4km/h 1.0mph /  1.6km/h 33% 0.00in /  0mm 0.0 W/m2
20:07 70.3 °F /  21.3 °C 39.9 °F /  4.4 °C 30.33in /  1027hPa Calm   1.0mph /  1.6km/h 33% 0.00in /  0mm 0.0 W/m2
20:13 70.0 °F /  21.1 °C 40.3 °F /  4.6 °C 30.33in /  1027hPa Calm   1.0mph /  1.6km/h 34% 0.00in /  0mm 0.0 W/m2
20:19 69.6 °F /  20.9 °C 40.8 °F /  4.9 °C 30.34in /  1027.3hPa Calm   1.0mph /  1.6km/h 35% 0.00in /  0mm 0.0 W/m2
20:25 69.3 °F /  20.7 °C 40.5 °F /  4.7 °C 30.34in /  1027.3hPa Calm   1.0mph /  1.6km/h 35% 0.00in /  0mm 0.0 W/m2
20:31 68.9 °F /  20.5 °C 40.8 °F /  4.9 °C 30.34in /  1027.3hPa Calm   1.0mph /  1.6km/h 36% 0.00in /  0mm 0.0 W/m2
20:38 68.5 °F /  20.3 °C 41.2 °F /  5.1 °C 30.34in /  1027.3hPa Calm   4.0mph /  6.4km/h 37% 0.00in /  0mm 0.0 W/m2
20:44 68.0 °F /  20 °C 41.4 °F /  5.2 °C 30.35in /  1027.7hPa Calm   3.0mph /  4.8km/h 38% 0.00in /  0mm 0.0 W/m2
20:50 67.5 °F /  19.7 °C 41.0 °F /  5 °C 30.35in /  1027.7hPa Calm   1.0mph /  1.6km/h 38% 0.00in /  0mm 0.0 W/m2
20:56 67.3 °F /  19.6 °C 41.5 °F /  5.3 °C 30.35in /  1027.7hPa Calm   3.0mph /  4.8km/h 39% 0.00in /  0mm 0.0 W/m2
21:02 66.9 °F /  19.4 °C 41.2 °F /  5.1 °C 30.35in /  1027.7hPa Calm   3.0mph /  4.8km/h 39% 0.00in /  0mm 0.0 W/m2
21:08 66.7 °F /  19.3 °C 42.3 °F /  5.7 °C 30.36in /  1028hPa Calm   3.0mph /  4.8km/h 41% 0.00in /  0mm 0.0 W/m2
21:14 66.6 °F /  19.2 °C 42.1 °F /  5.6 °C 30.36in /  1028hPa Calm   3.0mph /  4.8km/h 41% 0.00in /  0mm 0.0 W/m2
21:20 66.4 °F /  19.1 °C 41.9 °F /  5.5 °C 30.36in /  1028hPa Calm   2.0mph /  3.2km/h 41% 0.00in /  0mm 0.0 W/m2
21:27 66.0 °F /  18.9 °C 42.3 °F /  5.7 °C 30.36in /  1028hPa ENE 0.9mph /  1.4km/h 3.0mph /  4.8km/h 42% 0.00in /  0mm 0.0 W/m2
21:33 65.8 °F /  18.8 °C 42.1 °F /  5.6 °C 30.36in /  1028hPa Calm   3.0mph /  4.8km/h 42% 0.00in /  0mm 0.0 W/m2
21:39 65.7 °F /  18.7 °C 41.9 °F /  5.5 °C 30.36in /  1028hPa Calm   2.0mph /  3.2km/h 42% 0.00in /  0mm 0.0 W/m2
21:45 65.7 °F /  18.7 °C 41.9 °F /  5.5 °C 30.36in /  1028hPa Calm   1.0mph /  1.6km/h 42% 0.00in /  0mm 0.0 W/m2
21:51 65.5 °F /  18.6 °C 41.7 °F /  5.4 °C 30.37in /  1028.3hPa Calm   1.0mph /  1.6km/h 42% 0.00in /  0mm 0.0 W/m2
21:57 65.1 °F /  18.4 °C 41.5 °F /  5.3 °C 30.37in /  1028.3hPa Calm   1.0mph /  1.6km/h 42% 0.00in /  0mm 0.0 W/m2
22:03 64.9 °F /  18.3 °C 41.9 °F /  5.5 °C 30.37in /  1028.3hPa Calm   1.0mph /  1.6km/h 43% 0.00in /  0mm 0.0 W/m2
22:10 64.8 °F /  18.2 °C 41.7 °F /  5.4 °C 30.37in /  1028.3hPa Calm   3.0mph /  4.8km/h 43% 0.00in /  0mm 0.0 W/m2
22:16 64.6 °F /  18.1 °C 42.3 °F /  5.7 °C 30.37in /  1028.3hPa Calm   2.0mph /  3.2km/h 44% 0.00in /  0mm 0.0 W/m2
22:22 64.2 °F /  17.9 °C 41.9 °F /  5.5 °C 30.37in /  1028.3hPa Calm     44% 0.00in /  0mm 0.0 W/m2
22:28 64.0 °F /  17.8 °C 41.7 °F /  5.4 °C 30.37in /  1028.3hPa Calm   1.0mph /  1.6km/h 44% 0.00in /  0mm 0.0 W/m2
22:34 64.0 °F /  17.8 °C 41.7 °F /  5.4 °C 30.36in /  1028hPa ESE 0.9mph /  1.4km/h 1.0mph /  1.6km/h 44% 0.00in /  0mm 0.0 W/m2
22:40 63.9 °F /  17.7 °C 41.5 °F /  5.3 °C 30.37in /  1028.3hPa Calm     44% 0.00in /  0mm 0.0 W/m2
22:46 63.9 °F /  17.7 °C 42.1 °F /  5.6 °C 30.36in /  1028hPa Calm     45% 0.00in /  0mm 0.0 W/m2
22:52 63.7 °F /  17.6 °C 42.4 °F /  5.8 °C 30.36in /  1028hPa Calm     46% 0.00in /  0mm 0.0 W/m2
22:59 63.5 °F /  17.5 °C 42.3 °F /  5.7 °C 30.36in /  1028hPa Calm     46% 0.00in /  0mm 0.0 W/m2
23:05 63.3 °F /  17.4 °C 42.8 °F /  6 °C 30.37in /  1028.3hPa Calm     47% 0.00in /  0mm 0.0 W/m2
23:11 63.0 °F /  17.2 °C 42.4 °F /  5.8 °C 30.36in /  1028hPa Calm     47% 0.00in /  0mm 0.0 W/m2
23:17 62.6 °F /  17 °C 42.6 °F /  5.9 °C 30.36in /  1028hPa Calm     48% 0.00in /  0mm 0.0 W/m2
23:23 62.2 °F /  16.8 °C 42.3 °F /  5.7 °C 30.36in /  1028hPa Calm     48% 0.00in /  0mm 0.0 W/m2
23:29 61.9 °F /  16.6 °C 42.4 °F /  5.8 °C 30.36in /  1028hPa Calm   1.0mph /  1.6km/h 49% 0.00in /  0mm 0.0 W/m2
23:35 61.5 °F /  16.4 °C 42.3 °F /  5.7 °C 30.36in /  1028hPa Calm     49% 0.00in /  0mm 0.0 W/m2
23:42 61.3 °F /  16.3 °C 42.6 °F /  5.9 °C 30.36in /  1028hPa Calm   1.0mph /  1.6km/h 50% 0.00in /  0mm 0.0 W/m2
23:48 61.2 °F /  16.2 °C 43.0 °F /  6.1 °C 30.36in /  1028hPa Calm     51% 0.00in /  0mm 0.0 W/m2
23:54 61.0 °F /  16.1 °C 42.8 °F /  6 °C 30.36in /  1028hPa Calm     51% 0.00in /  0mm 0.0 W/m2
Olympia, Windhoek, Namibia
Compliments of Weather Underground - 3 mb